Fontana, CA (92336)

11:37 PM PDT on September 30, 2014 (GMT -0700)
Citrus Heights | Change Station
CLOSE
Current Station
Personal Weather Station
Location: Fontana, CA
Elevation: 1550 ft
Nearby Weather Stations
Active Advisory: Heat Advisory

Elev 1550 ft 34.15 °N, 117.46 °W | Updated 8 seconds ago

Clear
Clear
65.7 °F
Feels Like 65.7 °F
N
2.2
Wind Variable Wind from North
Gusts 4.5 mph

Today
High -- | Low -- °F
--% Chance of Precip.
Yesterday
High -- | Low -- °F
Precip. -- in
6:43 AM 6:35 PM
Waxing Crescent, 44% visible
Pressure 29.75 in
Visibility 10.0 miles
Clouds Clear
Dew Point 52 °F
Humidity 61%
Rainfall 0.00 in
Snow Depth 1 in , 1 in , 0 in
UV 0 out of 12
Pollen 5.30 out of 12
Ozone Good
PM2.5 Moderate
Flu Activity Not available.
METAR KONT 010553Z 00000KT 10SM CLR 21/12 A2979 RMK AO2 SLP072 T02110117 10311 20211 51004

More Conditions Fewer Conditions

Pressure 29.75 in
Visibility 10.0 miles
Clouds Clear
Dew Point 52 °F
Humidity 61%
Rainfall 0.00 in
Snow Depth 1 in , 1 in , 0 in
UV 0 out of 12
Pollen 5.30 out of 12
Ozone Good
PM2.5 Moderate
Flu Activity Not available.
METAR KONT 010553Z 00000KT 10SM CLR 21/12 A2979 RMK AO2 SLP072 T02110117 10311 20211 51004

More Conditions Fewer Conditions

10-Day Weather Forecast

Almanac

Astronomy

Sep. 30, 2014 Rise Set
Actual Time 6:43 AM PDT 6:35 PM PDT
Civil Twilight 6:18 AM PDT 7:00 PM PDT
Nautical Twilight 5:49 AM PDT 7:29 PM PDT
Astronomical Twilight 5:20 AM PDT 7:58 PM PDT
Moon 12:44 PM PDT (9/30) 11:21 PM PDT (9/30)
Length of Visible Light 12h 41m
Length of Day
11h 51m
Tomorrow will be 2m 6s shorter.
Waxing Crescent, 44% of the Moon is Illuminated
Oct 1
Waxing Crescent
Oct 1
First Quarter
Oct 8
Full
Oct 15
Last Quarter
Oct 23
New

Community

WunderPhotos

Upload Photos

1,757,886 photos uploaded!

Nearby

Air Quality

  Air Quality AQ Index Pollutant
Yesterday Good
PM10
Yesterday Good
OZONE
Current Moderate
PM2.5
Current Good
OZONE
Wednesday Moderate
PM10
Wednesday Moderate
OZONE
Wednesday Good
CO
Wednesday Good
NO2

Snow Depth

Station Depth Elevation
Leavitt Lake 1 in 9400 ft
Summit Meadow 1 in 9122 ft
Rubicon #2 0 in 7500 ft
Sonora Pass 0 in 8800 ft
Crowder Flat 0 in 5100 ft

Earthquake Activity

City Distance Mag. Time & Date
Avalon, California 89 miles 2.6 1:28 PM PDT
2014-09-30
Minimum magnitude displayed is 2.5.

Coastal Water Temperatures

Place Temperature
No Stations Reporting

Nearby Weather Stations